Whickham, United Kingdom
Current Conditions -  °F | °C
As of 8:20 AM on Friday 31 Oct 2014 (Local Time) from EGNT Reporting Station
Few Clouds Few Clouds  
Wind Chill: 57°   Ceiling: Unl
Heat Index: 57°   Visibility: 5mi
Dew Point: 55°   Wind: 6mph
Humidity: 94%   Direction: 170°S
Pressure: 29.85"   Gusts: NA
Location:  54.95°N, 1.68°W
Report Text: EGNT 310820Z 17005KT 130V190 8000 FEW025 14/13 Q1011
Loading
Personal Weather Stations






























Interactive Weather Map
Tropical Storm Tracking
New forecast layout! Learn more

10-Day Weather Forecast

Advertisements
Track Severe Weather on mobile